Time;durP1;ratioP1;P1;durP2;ratioP2;P2;SDS_P1;SDS_P2;PMS_P1;PMS_P2;Temp;Humidity;BMP_temperature;BMP_pressure;BME280_temperature;BME280_humidity;BME280_pressure;Samples;Min_cycle;Max_cycle;Signal;HPM_P1;HPM_P2
2021/01/18 00:01:12;;;;;;;218.33;73.25;;;;;;;-17.42;82.30;101111.16;10762051;81;21476;-78
2021/01/18 00:16:19;;;;;;;130.22;43.10;;;;;;;-16.84;82.31;101099.08;10737404;82;21463;-80
2021/01/18 00:31:23;;;;;;;294.60;90.75;;;;;;;-16.62;83.77;101105.33;10735488;81;21067;-78
2021/01/18 00:46:28;;;;;;;314.32;97.10;;;;;;;-16.34;84.37;101106.30;10708831;81;21511;-79
2021/01/18 01:01:34;;;;;;;189.77;61.45;;;;;;;-15.95;85.18;101111.39;10632389;83;21569;-79
2021/01/18 01:16:38;;;;;;;305.40;90.35;;;;;;;-15.91;85.20;101095.18;10631834;83;21432;-79
2021/01/18 01:31:43;;;;;;;205.65;61.08;;;;;;;-15.61;88.38;101099.84;10634876;83;21058;-79
2021/01/18 01:46:48;;;;;;;171.15;51.40;;;;;;;-15.68;89.46;101098.80;10732828;82;21088;-79
2021/01/18 02:01:55;;;;;;;298.82;78.45;;;;;;;-15.36;89.09;101096.84;10863651;81;21131;-79
2021/01/18 02:17:05;;;;;;;142.80;47.43;;;;;;;-15.28;88.95;101096.28;10863821;82;21047;-79
2021/01/18 02:32:40;;;;;;;201.43;59.60;;;;;;;-15.02;88.82;101081.08;10863737;81;21471;-79
2021/01/18 02:47:47;;;;;;;189.32;55.05;;;;;;;-14.75;89.74;101084.80;10834988;82;21584;-79
2021/01/18 03:03:01;;;;;;;209.98;59.67;;;;;;;-14.58;90.67;101073.02;10766419;82;21175;-80
2021/01/18 03:18:11;;;;;;;125.67;38.45;;;;;;;-14.46;91.13;101059.91;10722211;81;21048;-80
2021/01/18 03:33:15;;;;;;;118.90;38.23;;;;;;;-14.41;91.81;101064.66;10690208;83;21148;-79
2021/01/18 03:48:21;;;;;;;149.12;46.23;;;;;;;-14.08;91.32;101056.25;10647528;82;21056;-79
2021/01/18 04:03:27;;;;;;;452.45;106.85;;;;;;;-13.90;92.74;101039.47;10618101;83;21536;-79
2021/01/18 04:18:33;;;;;;;132.80;36.68;;;;;;;-14.04;93.15;101032.81;10609212;83;21148;-77
2021/01/18 04:33:38;;;;;;;80.32;26.23;;;;;;;-14.07;94.08;101024.76;10163866;87;21008;-78
2021/01/18 04:48:42;;;;;;;83.35;30.88;;;;;;;-13.80;93.73;101003.94;10639851;83;21574;-80
2021/01/18 05:03:50;;;;;;;139.15;41.58;;;;;;;-13.47;93.95;101008.91;10574817;83;21160;-80
2021/01/18 05:18:57;;;;;;;79.85;29.70;;;;;;;-13.48;93.75;101008.46;10572840;83;21053;-80
2021/01/18 05:34:03;;;;;;;110.37;37.33;;;;;;;-13.44;94.78;100995.08;9704775;89;21141;-80
2021/01/18 05:49:11;;;;;;;109.17;35.20;;;;;;;-13.45;95.07;101008.94;10202698;85;21494;-80
2021/01/18 06:04:17;;;;;;;118.00;38.10;;;;;;;-13.66;95.98;100995.02;10643951;81;21016;-80
2021/01/18 06:19:24;;;;;;;199.93;57.83;;;;;;;-13.61;97.00;100998.91;10654449;83;21012;-80
2021/01/18 06:34:32;;;;;;;213.60;82.97;;;;;;;-13.53;96.60;101011.71;10636703;83;21075;-80
2021/01/18 06:49:37;;;;;;;153.00;47.48;;;;;;;-13.95;96.43;101010.33;10658385;81;21039;-79
2021/01/18 07:04:46;;;;;;;204.55;60.17;;;;;;;-14.18;98.32;101032.91;10786918;81;21048;-79
2021/01/18 07:19:56;;;;;;;261.82;86.85;;;;;;;-14.27;99.06;101038.56;10375216;84;21017;-76
2021/01/18 07:35:04;;;;;;;;;;;;;;;-14.25;100.00;101036.91;10517932;83;21027;-79
2021/01/18 07:50:09;;;;;;;234.47;66.70;;;;;;;-14.95;100.00;101038.03;10415613;85;20161;-79
2021/01/18 08:05:26;;;;;;;350.38;91.95;;;;;;;-14.70;100.00;101020.66;10281738;86;21475;-78
2021/01/18 08:20:31;;;;;;;314.82;129.20;;;;;;;-14.68;100.00;101010.23;10286305;86;21112;-76
2021/01/18 08:35:47;;;;;;;218.25;60.63;;;;;;;-14.82;100.00;100997.67;10375039;86;21089;-80
2021/01/18 08:50:53;;;;;;;180.45;57.85;;;;;;;-13.89;100.00;101015.95;10681839;83;21454;-79
2021/01/18 09:05:59;;;;;;;192.98;60.70;;;;;;;-13.67;99.32;101045.07;10742589;83;21056;-80
2021/01/18 09:21:09;;;;;;;225.13;71.42;;;;;;;-13.24;97.92;101046.39;10728365;81;21059;-80
2021/01/18 09:36:20;;;;;;;190.45;59.00;;;;;;;-12.81;97.45;101049.81;10741562;81;21044;-81
2021/01/18 09:51:25;;;;;;;211.65;62.23;;;;;;;-12.25;96.06;101052.95;10764906;81;21550;-80
2021/01/18 10:06:33;;;;;;;213.72;63.83;;;;;;;-12.22;92.77;101045.44;10816459;81;21103;-80
2021/01/18 10:21:39;;;;;;;123.05;40.88;;;;;;;-12.27;89.47;101040.70;10822179;81;21055;-81
2021/01/18 10:36:45;;;;;;;264.05;82.33;;;;;;;-11.85;89.86;101036.28;10820487;81;21119;-83
2021/01/18 10:52:10;;;;;;;189.03;56.53;;;;;;;-10.95;88.41;101040.94;10757706;81;21576;-78
2021/01/18 11:07:16;;;;;;;326.35;103.70;;;;;;;-10.49;85.51;101035.95;10406825;85;21040;-79
2021/01/18 11:22:20;;;;;;;273.20;97.02;;;;;;;-10.15;81.00;101026.94;10704911;82;21159;-81
2021/01/18 11:37:24;;;;;;;210.48;66.50;;;;;;;-9.74;79.31;101006.13;10685150;83;21214;-81
2021/01/18 11:52:33;;;;;;;191.73;56.00;;;;;;;-9.53;81.42;100984.22;10504260;82;21103;-82
2021/01/18 12:07:37;;;;;;;365.70;109.50;;;;;;;-8.81;81.49;100977.34;10506906;83;21081;-82
2021/01/18 12:22:42;;;;;;;243.50;73.67;;;;;;;-7.68;81.35;100959.52;10480331;83;21106;-80
2021/01/18 12:37:49;;;;;;;225.68;77.55;;;;;;;-7.16;81.55;100940.67;10464787;85;21055;-81
2021/01/18 12:52:53;;;;;;;224.88;74.12;;;;;;;-6.71;79.00;100928.51;10539191;82;21073;-83
2021/01/18 13:07:57;;;;;;;251.93;78.83;;;;;;;-6.14;80.61;100921.28;10649977;83;21095;-89
2021/01/18 13:23:02;;;;;;;244.35;77.47;;;;;;;-6.11;77.86;100918.28;10726356;83;21068;-79
2021/01/18 13:38:07;;;;;;;243.17;83.25;;;;;;;-3.15;69.42;100921.11;10709816;83;21066;-78
2021/01/18 13:53:11;;;;;;;335.00;105.47;;;;;;;-2.90;61.08;100924.45;10717039;82;21483;-77
2021/01/18 14:08:15;;;;;;;251.47;74.80;;;;;;;-2.87;62.39;100916.22;10719782;81;21095;-81
2021/01/18 14:23:20;;;;;;;407.17;117.50;;;;;;;-5.94;63.81;100907.87;10726793;83;21458;-79
2021/01/18 14:38:24;;;;;;;392.30;110.42;;;;;;;-8.59;66.65;100912.48;10712750;82;21083;-81
2021/01/18 14:53:29;;;;;;;234.90;66.97;;;;;;;-9.87;69.18;100912.50;10744852;82;21060;-81
2021/01/18 15:08:35;;;;;;;428.80;103.62;;;;;;;-11.13;73.41;100914.84;10688455;83;21503;-79
2021/01/18 15:23:40;;;;;;;349.65;91.85;;;;;;;-11.12;72.95;100896.70;10613559;82;21182;-81
2021/01/18 15:38:46;;;;;;;308.70;92.17;;;;;;;-11.44;74.01;100895.89;10617484;83;21071;-79
2021/01/18 15:53:50;;;;;;;224.15;68.22;;;;;;;-12.08;77.33;100884.98;10640254;82;21129;-79
2021/01/18 16:08:57;;;;;;;290.43;90.60;;;;;;;-12.65;80.02;100871.90;10677607;82;21668;-79
2021/01/18 16:24:01;;;;;;;202.32;65.87;;;;;;;-12.70;81.49;100862.96;10773728;81;21937;-81
2021/01/18 16:39:08;;;;;;;321.18;96.50;;;;;;;-13.00;84.43;100854.45;10755278;81;21235;-79
2021/01/18 16:54:13;;;;;;;264.88;87.85;;;;;;;-13.49;87.73;100850.65;10418416;83;21525;-80
2021/01/18 17:09:21;;;;;;;479.07;137.28;;;;;;;-13.69;90.73;100840.17;10680254;83;21063;-79
2021/01/18 17:24:27;;;;;;;213.90;66.57;;;;;;;-13.61;89.87;100833.17;10690740;83;21551;-79
2021/01/18 17:39:31;;;;;;;283.43;83.78;;;;;;;-13.68;87.55;100836.41;10685171;83;21151;-78
2021/01/18 17:54:35;;;;;;;236.30;65.37;;;;;;;-13.68;86.93;100832.63;10713961;82;21138;-79
2021/01/18 18:09:41;;;;;;;575.42;182.07;;;;;;;-14.27;87.17;100827.61;10729782;82;21842;-81
2021/01/18 18:24:46;;;;;;;334.27;88.82;;;;;;;-14.18;87.57;100831.17;10735046;82;21072;-79
2021/01/18 18:39:51;;;;;;;331.90;99.07;;;;;;;-14.31;86.54;100820.80;10730168;81;21545;-82
2021/01/18 18:54:55;;;;;;;209.03;62.83;;;;;;;-14.50;86.78;100819.55;10742057;81;21076;-80
2021/01/18 19:10:00;;;;;;;168.40;54.43;;;;;;;-14.81;87.60;100804.99;10739045;82;21095;-83
2021/01/18 19:25:07;;;;;;;215.95;61.83;;;;;;;-14.74;88.51;100806.86;10741332;82;21091;-82
2021/01/18 19:40:15;;;;;;;240.90;81.22;;;;;;;-14.80;89.13;100795.79;10513125;83;21581;-80
2021/01/18 19:55:20;;;;;;;396.95;116.65;;;;;;;-15.03;89.39;100780.95;10739879;81;21095;-79
2021/01/18 20:10:26;;;;;;;511.80;146.80;;;;;;;-15.55;90.96;100788.05;10715533;82;21060;-82
2021/01/18 20:25:31;;;;;;;423.30;118.45;;;;;;;-15.55;90.39;100784.70;10649142;81;21577;-79
2021/01/18 20:40:36;;;;;;;480.33;136.43;;;;;;;-15.73;89.41;100783.38;10644723;83;21111;-80
2021/01/18 20:55:42;;;;;;;300.95;87.40;;;;;;;-15.71;89.21;100770.83;10703538;82;21056;-79
2021/01/18 21:10:50;;;;;;;526.40;142.05;;;;;;;-15.62;89.53;100751.82;10587573;83;21131;-81
2021/01/18 21:25:56;;;;;;;323.57;95.47;;;;;;;-15.94;89.46;100752.24;10400044;84;21023;-83
2021/01/18 21:41:00;;;;;;;248.62;69.75;;;;;;;-15.95;90.39;100729.19;10649080;82;21551;-81
2021/01/18 21:56:06;;;;;;;139.45;46.00;;;;;;;-15.76;90.63;100716.65;10678652;81;21450;-79
2021/01/18 22:11:11;;;;;;;186.85;58.08;;;;;;;-15.50;90.81;100708.52;10734784;81;21098;-79
2021/01/18 22:26:19;;;;;;;182.32;47.70;;;;;;;-15.18;91.74;100685.77;10729232;81;20984;-79
2021/01/18 22:41:23;;;;;;;254.72;78.57;;;;;;;-14.99;91.07;100666.92;10723278;83;21051;-79
2021/01/18 22:56:28;;;;;;;457.70;124.58;;;;;;;-14.90;91.63;100642.32;10768190;81;21103;-79
2021/01/18 23:11:37;;;;;;;198.60;56.77;;;;;;;-14.88;91.73;100634.41;10811553;82;21011;-79
2021/01/18 23:26:43;;;;;;;190.77;56.08;;;;;;;-14.82;91.97;100623.17;10817492;81;21110;-78
2021/01/18 23:41:47;;;;;;;231.30;69.15;;;;;;;-14.86;92.48;100592.87;10817358;81;21110;-80
2021/01/18 23:56:52;;;;;;;120.40;34.53;;;;;;;-14.87;92.95;100568.50;10775975;81;21485;-78
